Time;durP1;ratioP1;P1;durP2;ratioP2;P2;SDS_P1;SDS_P2;PMS_P1;PMS_P2;Temp;Humidity;BMP_temperature;BMP_pressure;BME280_temperature;BME280_humidity;BME280_pressure;Samples;Min_cycle;Max_cycle;Signal;HPM_P1;HPM_P2
2023/12/02 00:01:25;;;;;;;8.50;2.13;;;;;;;;;;10443917;28;20258;-84
2023/12/02 00:06:25;;;;;;;6.22;2.58;;;;;;;;;;10434702;28;20142;-84
2023/12/02 00:11:25;;;;;;;7.18;2.00;;;;;;;;;;10444355;28;20383;-84
2023/12/02 00:16:26;;;;;;;8.80;2.95;;;;;;;;;;10441271;28;20021;-82
2023/12/02 00:21:26;;;;;;;8.43;2.72;;;;;;;;;;10441381;28;20020;-89
2023/12/02 00:32:12;;;;;;;10.05;2.70;;;;;;;;;;10467893;28;20037;-89
2023/12/02 00:37:13;;;;;;;9.27;2.70;;;;;;;;;;10451759;28;20319;-89
2023/12/02 00:42:13;;;;;;;4.13;2.50;;;;;;;;;;10462822;28;20067;-90
2023/12/02 00:47:13;;;;;;;10.60;2.60;;;;;;;;;;10443369;28;20033;-85
2023/12/02 00:52:13;;;;;;;9.15;1.90;;;;;;;;;;10440182;28;20071;-83
2023/12/02 00:57:14;;;;;;;5.10;2.60;;;;;;;;;;10444596;28;20342;-83
2023/12/02 01:02:14;;;;;;;6.65;2.42;;;;;;;;;;10441606;28;20222;-83
2023/12/02 01:07:14;;;;;;;8.18;2.47;;;;;;;;;;10441054;28;20140;-82
2023/12/02 01:12:15;;;;;;;13.63;2.30;;;;;;;;;;10442372;28;20021;-77
2023/12/02 01:17:16;;;;;;;9.05;2.40;;;;;;;;;;10458549;28;20052;-77
2023/12/02 01:22:16;;;;;;;8.52;2.53;;;;;;;;;;10460482;28;20024;-77
2023/12/02 01:27:16;;;;;;;6.60;2.45;;;;;;;;;;10458561;28;20025;-76
2023/12/02 01:32:17;;;;;;;7.93;2.50;;;;;;;;;;10459691;28;20080;-76
2023/12/02 01:37:17;;;;;;;8.07;2.60;;;;;;;;;;10457300;28;20330;-76
2023/12/02 01:42:18;;;;;;;13.23;2.92;;;;;;;;;;10457129;28;20244;-77
2023/12/02 01:47:18;;;;;;;11.15;2.42;;;;;;;;;;10457490;28;20231;-77
2023/12/02 01:52:18;;;;;;;11.63;3.22;;;;;;;;;;10456915;28;20032;-77
2023/12/02 01:57:20;;;;;;;5.20;2.15;;;;;;;;;;10456897;28;20035;-77
2023/12/02 02:02:21;;;;;;;4.50;2.50;;;;;;;;;;10457128;28;20024;-78
2023/12/02 02:07:21;;;;;;;4.70;2.60;;;;;;;;;;10456449;28;20364;-77
2023/12/02 02:12:21;;;;;;;9.95;2.38;;;;;;;;;;10456682;28;20287;-78
2023/12/02 02:17:22;;;;;;;20.83;2.42;;;;;;;;;;10456110;28;20083;-76
2023/12/02 02:22:22;;;;;;;8.07;1.73;;;;;;;;;;10456354;28;20086;-78
2023/12/02 02:27:22;;;;;;;4.28;1.50;;;;;;;;;;10453978;28;20032;-78
2023/12/02 02:32:22;;;;;;;6.60;1.60;;;;;;;;;;10458654;28;20017;-76
2023/12/02 02:37:23;;;;;;;10.75;2.85;;;;;;;;;;10456291;28;20088;-76
2023/12/02 02:42:24;;;;;;;6.32;1.98;;;;;;;;;;10455899;28;20024;-76
2023/12/02 02:47:24;;;;;;;7.28;2.60;;;;;;;;;;10455952;28;20029;-77
2023/12/02 02:52:24;;;;;;;6.28;2.15;;;;;;;;;;10464481;28;20021;-77
2023/12/02 02:57:25;;;;;;;6.55;1.85;;;;;;;;;;10455908;28;20029;-76
2023/12/02 03:02:26;;;;;;;6.03;1.67;;;;;;;;;;10461954;28;20040;-78
2023/12/02 03:07:26;;;;;;;8.20;2.10;;;;;;;;;;10463417;28;20029;-78
2023/12/02 03:12:26;;;;;;;6.18;1.63;;;;;;;;;;10464285;28;20029;-78
2023/12/02 03:17:27;;;;;;;6.43;1.70;;;;;;;;;;10463598;28;20029;-76
2023/12/02 03:22:27;;;;;;;5.30;1.52;;;;;;;;;;10463129;28;20033;-77
2023/12/02 03:27:27;;;;;;;7.15;2.60;;;;;;;;;;10462862;28;20037;-78
2023/12/02 03:32:27;;;;;;;6.80;2.50;;;;;;;;;;10462457;28;20017;-76
2023/12/02 03:37:29;;;;;;;5.80;1.85;;;;;;;;;;10463704;28;20040;-79
2023/12/02 03:42:29;;;;;;;6.20;1.58;;;;;;;;;;10461104;28;20068;-77
2023/12/02 03:47:29;;;;;;;4.68;1.77;;;;;;;;;;10462559;28;20062;-76
2023/12/02 03:52:30;;;;;;;10.90;1.70;;;;;;;;;;10461967;28;20025;-77
2023/12/02 03:57:30;;;;;;;7.10;2.13;;;;;;;;;;10461540;28;20005;-77
2023/12/02 04:02:33;;;;;;;9.77;2.00;;;;;;;;;;10461836;28;20230;-77
2023/12/02 04:07:34;;;;;;;5.35;1.85;;;;;;;;;;10461246;28;20016;-77
2023/12/02 04:12:34;;;;;;;5.57;1.33;;;;;;;;;;10460014;28;20307;-77
2023/12/02 04:17:34;;;;;;;3.27;1.43;;;;;;;;;;10465233;28;20020;-76
2023/12/02 04:22:35;;;;;;;7.13;4.03;;;;;;;;;;10460729;28;20025;-76
2023/12/02 04:27:36;;;;;;;7.35;1.70;;;;;;;;;;10460248;28;20044;-77
2023/12/02 04:32:36;;;;;;;4.35;1.60;;;;;;;;;;10460627;28;20348;-77
2023/12/02 04:37:36;;;;;;;3.75;1.83;;;;;;;;;;10442237;28;20343;-77
2023/12/02 04:42:40;;;;;;;4.05;1.70;;;;;;;;;;10459425;28;20013;-76
2023/12/02 04:47:40;;;;;;;5.18;1.83;;;;;;;;;;10459559;28;20025;-77
2023/12/02 04:52:41;;;;;;;9.85;2.47;;;;;;;;;;10459677;28;20362;-76
2023/12/02 04:57:41;;;;;;;8.35;3.70;;;;;;;;;;10459345;28;20316;-77
2023/12/02 05:02:43;;;;;;;10.15;2.40;;;;;;;;;;10458709;28;20068;-76
2023/12/02 05:07:43;;;;;;;5.82;1.90;;;;;;;;;;10458996;28;20039;-77
2023/12/02 05:12:43;;;;;;;5.47;1.67;;;;;;;;;;10440289;28;20211;-76
2023/12/02 05:17:45;;;;;;;8.15;2.20;;;;;;;;;;10458474;28;20452;-76
2023/12/02 05:22:46;;;;;;;5.70;2.10;;;;;;;;;;10455513;28;20047;-78
2023/12/02 05:27:46;;;;;;;3.95;1.65;;;;;;;;;;10457322;28;20047;-77
2023/12/02 05:32:46;;;;;;;11.55;2.85;;;;;;;;;;10457705;28;20021;-77
2023/12/02 05:37:47;;;;;;;4.80;1.70;;;;;;;;;;10457200;28;20077;-77
2023/12/02 05:42:47;;;;;;;4.35;2.35;;;;;;;;;;10457380;28;20022;-77
2023/12/02 05:47:47;;;;;;;4.68;1.58;;;;;;;;;;10456835;28;20021;-77
2023/12/02 05:52:48;;;;;;;7.28;1.83;;;;;;;;;;10456637;28;20062;-77
2023/12/02 05:57:48;;;;;;;7.15;2.25;;;;;;;;;;10457192;28;20021;-78
2023/12/02 06:02:48;;;;;;;6.18;1.92;;;;;;;;;;10456218;28;20032;-77
2023/12/02 06:07:48;;;;;;;5.20;1.23;;;;;;;;;;10454880;28;20036;-77
2023/12/02 06:12:49;;;;;;;4.70;1.98;;;;;;;;;;10455336;28;20035;-78
2023/12/02 06:17:49;;;;;;;4.15;1.85;;;;;;;;;;10457320;28;20037;-77
2023/12/02 06:22:49;;;;;;;2.80;1.80;;;;;;;;;;10458505;28;20027;-74
2023/12/02 06:27:50;;;;;;;8.85;2.00;;;;;;;;;;10439742;28;20045;-75
2023/12/02 06:32:50;;;;;;;6.40;2.55;;;;;;;;;;10454254;28;20013;-75
2023/12/02 06:37:50;;;;;;;3.85;1.70;;;;;;;;;;10462741;28;20027;-77
2023/12/02 06:42:50;;;;;;;2.95;1.80;;;;;;;;;;10464162;28;20028;-76
2023/12/02 06:47:51;;;;;;;6.03;3.60;;;;;;;;;;10466157;28;20084;-76
2023/12/02 06:52:51;;;;;;;14.43;2.30;;;;;;;;;;10464738;28;20017;-85
2023/12/02 06:57:52;;;;;;;7.05;2.10;;;;;;;;;;10451986;28;20014;-84
2023/12/02 07:02:52;;;;;;;8.70;1.95;;;;;;;;;;10446737;28;20307;-73
2023/12/02 07:07:52;;;;;;;9.90;2.47;;;;;;;;;;10438493;28;20033;-74
2023/12/02 07:12:52;;;;;;;7.38;1.80;;;;;;;;;;10428810;28;20205;-74
2023/12/02 07:17:53;;;;;;;4.35;1.60;;;;;;;;;;10440763;28;20051;-73
2023/12/02 07:22:53;;;;;;;4.93;1.70;;;;;;;;;;10447089;28;20059;-73
2023/12/02 07:27:53;;;;;;;7.28;1.88;;;;;;;;;;10440902;28;20037;-73
2023/12/02 07:32:53;;;;;;;7.35;1.65;;;;;;;;;;10438379;28;20039;-74
2023/12/02 07:37:54;;;;;;;8.20;1.77;;;;;;;;;;10437174;28;20028;-74
2023/12/02 07:42:54;;;;;;;10.30;2.57;;;;;;;;;;10438833;28;20034;-74
2023/12/02 07:47:54;;;;;;;4.53;1.92;;;;;;;;;;10426541;28;20478;-75
2023/12/02 07:52:54;;;;;;;8.60;2.33;;;;;;;;;;10436988;28;20357;-74
2023/12/02 07:57:54;;;;;;;5.97;2.30;;;;;;;;;;10446389;28;20303;-72
2023/12/02 08:02:55;;;;;;;12.57;2.88;;;;;;;;;;10438510;28;20021;-73
2023/12/02 08:07:56;;;;;;;5.18;2.38;;;;;;;;;;10432992;28;20020;-75
2023/12/02 08:12:56;;;;;;;16.02;2.80;;;;;;;;;;10420166;28;20017;-73
2023/12/02 08:17:56;;;;;;;24.50;4.93;;;;;;;;;;10445296;28;20311;-75
2023/12/02 08:22:57;;;;;;;9.80;3.05;;;;;;;;;;10436571;28;20029;-74
2023/12/02 08:27:58;;;;;;;17.25;3.60;;;;;;;;;;10440045;28;20052;-75
2023/12/02 08:32:58;;;;;;;9.38;3.50;;;;;;;;;;10433881;28;20024;-75
2023/12/02 08:37:58;;;;;;;7.97;2.30;;;;;;;;;;10435171;28;20082;-75
2023/12/02 08:42:58;;;;;;;11.45;3.83;;;;;;;;;;10441900;28;20037;-74
2023/12/02 08:47:58;;;;;;;9.70;3.20;;;;;;;;;;10439616;28;20064;-75
2023/12/02 08:52:59;;;;;;;16.13;4.35;;;;;;;;;;10442302;28;20025;-74
2023/12/02 08:57:59;;;;;;;18.98;4.93;;;;;;;;;;10436661;28;20055;-74
2023/12/02 09:02:59;;;;;;;13.63;4.22;;;;;;;;;;10427975;28;20327;-75
2023/12/02 09:08:01;;;;;;;23.85;5.45;;;;;;;;;;10439014;28;20319;-75
2023/12/02 09:13:06;;;;;;;7.22;3.17;;;;;;;;;;10441336;28;20231;-75
2023/12/02 09:18:09;;;;;;;8.10;3.17;;;;;;;;;;10438953;28;20682;-74
2023/12/02 09:23:09;;;;;;;10.55;4.15;;;;;;;;;;10422581;28;20252;-74
2023/12/02 09:28:11;;;;;;;16.67;4.40;;;;;;;;;;10430628;28;20084;-74
2023/12/02 09:33:11;;;;;;;30.63;8.23;;;;;;;;;;10439635;28;20041;-74
2023/12/02 09:38:13;;;;;;;22.15;4.72;;;;;;;;;;10417402;28;20028;-74
2023/12/02 09:43:25;;;;;;;29.02;6.25;;;;;;;;;;10436704;28;20132;-74
2023/12/02 09:48:28;;;;;;;23.42;4.30;;;;;;;;;;10435146;28;20317;-75
2023/12/02 09:53:31;;;;;;;28.98;4.63;;;;;;;;;;10433468;28;20318;-75
2023/12/02 09:58:41;;;;;;;16.23;3.65;;;;;;;;;;10430731;28;20017;-75
2023/12/02 10:03:47;;;;;;;11.13;2.75;;;;;;;;;;10436560;28;20276;-74
2023/12/02 10:08:47;;;;;;;7.25;2.58;;;;;;;;;;10427703;28;20024;-76
2023/12/02 10:13:59;;;;;;;54.88;6.72;;;;;;;;;;10439196;28;20037;-75
2023/12/02 10:19:00;;;;;;;16.45;4.60;;;;;;;;;;10421469;28;20120;-76
2023/12/02 10:24:02;;;;;;;27.70;5.78;;;;;;;;;;10433407;28;20037;-74
2023/12/02 10:29:05;;;;;;;18.90;4.80;;;;;;;;;;10439836;28;20350;-75
2023/12/02 10:34:08;;;;;;;25.27;5.85;;;;;;;;;;10434755;28;20211;-75
2023/12/02 10:39:14;;;;;;;76.18;9.98;;;;;;;;;;10435984;28;20063;-74
2023/12/02 10:44:18;;;;;;;21.55;4.38;;;;;;;;;;10435774;28;20035;-74
2023/12/02 10:49:18;;;;;;;129.90;13.23;;;;;;;;;;10435617;28;20025;-75
2023/12/02 10:54:21;;;;;;;32.67;5.40;;;;;;;;;;10440761;28;20032;-75
2023/12/02 10:59:23;;;;;;;30.52;4.35;;;;;;;;;;10420785;28;20030;-75
2023/12/02 11:04:28;;;;;;;25.15;6.05;;;;;;;;;;10430026;28;20048;-73
2023/12/02 11:09:47;;;;;;;50.33;5.20;;;;;;;;;;10430575;28;20040;-75
2023/12/02 11:14:48;;;;;;;15.38;3.50;;;;;;;;;;10426719;28;20033;-74
2023/12/02 11:20:08;;;;;;;18.02;3.05;;;;;;;;;;10432217;28;20048;-75
2023/12/02 11:25:27;;;;;;;13.48;3.38;;;;;;;;;;10434855;28;20044;-75
2023/12/02 11:30:46;;;;;;;31.23;4.18;;;;;;;;;;10441385;28;20040;-74
2023/12/02 11:35:47;;;;;;;24.83;4.03;;;;;;;;;;10437044;28;20029;-74
2023/12/02 11:40:47;;;;;;;19.77;4.25;;;;;;;;;;10434469;28;20057;-74
2023/12/02 11:45:54;;;;;;;14.03;4.20;;;;;;;;;;10434486;28;20024;-79
2023/12/02 11:50:57;;;;;;;28.42;5.35;;;;;;;;;;10434266;28;20024;-75
2023/12/02 11:56:10;;;;;;;19.85;4.97;;;;;;;;;;10442510;28;20099;-79
2023/12/02 12:01:10;;;;;;;28.05;5.28;;;;;;;;;;10440688;28;20067;-81
2023/12/02 12:06:16;;;;;;;36.75;6.18;;;;;;;;;;10456181;28;20039;-75
2023/12/02 12:11:19;;;;;;;29.85;6.07;;;;;;;;;;10461761;28;20025;-73
2023/12/02 12:16:19;;;;;;;20.58;3.88;;;;;;;;;;10461828;28;20326;-74
2023/12/02 12:21:20;;;;;;;28.63;4.50;;;;;;;;;;10463342;28;20029;-75
2023/12/02 12:26:20;;;;;;;8.85;2.25;;;;;;;;;;10460985;28;20037;-75
2023/12/02 12:31:21;;;;;;;39.78;5.82;;;;;;;;;;10461041;28;20076;-73
2023/12/02 12:36:31;;;;;;;33.17;5.53;;;;;;;;;;10460537;28;20024;-73
2023/12/02 12:41:31;;;;;;;21.48;3.85;;;;;;;;;;10461270;28;20048;-74
2023/12/02 12:46:31;;;;;;;11.27;2.90;;;;;;;;;;10460351;28;20029;-73
2023/12/02 12:51:32;;;;;;;84.13;9.55;;;;;;;;;;10457247;28;20017;-73
2023/12/02 12:56:39;;;;;;;26.02;3.67;;;;;;;;;;10457835;28;20046;-85
2023/12/02 13:01:45;;;;;;;10.93;2.50;;;;;;;;;;10441986;28;20021;-78
2023/12/02 13:06:48;;;;;;;25.48;4.40;;;;;;;;;;10439456;28;20521;-79
2023/12/02 13:11:54;;;;;;;14.38;2.72;;;;;;;;;;10429217;28;20017;-79
2023/12/02 13:16:55;;;;;;;15.48;2.40;;;;;;;;;;10437289;28;20049;-78
2023/12/02 13:21:57;;;;;;;5.63;1.20;;;;;;;;;;10429949;28;20025;-77
2023/12/02 13:26:57;;;;;;;40.65;4.63;;;;;;;;;;10432634;28;20044;-78
2023/12/02 13:31:58;;;;;;;11.43;2.63;;;;;;;;;;10433232;28;20548;-79
2023/12/02 13:36:59;;;;;;;11.27;1.70;;;;;;;;;;10431941;28;20348;-77
2023/12/02 13:42:20;;;;;;;6.47;1.25;;;;;;;;;;10431912;28;20021;-77
2023/12/02 13:47:28;;;;;;;9.88;1.40;;;;;;;;;;10435013;28;20036;-77
2023/12/02 13:52:28;;;;;;;;;;;;;;;;;;10415947;28;20020;-78
2023/12/02 13:57:53;;;;;;;11.68;3.65;;;;;;;;;;10424641;28;19959;-77
2023/12/02 14:02:59;;;;;;;11.73;2.28;;;;;;;;;;10432429;28;20040;-77
2023/12/02 14:08:00;;;;;;;11.90;2.95;;;;;;;;;;10431653;28;20346;-77
2023/12/02 14:13:07;;;;;;;16.00;4.38;;;;;;;;;;10435721;28;20021;-77
2023/12/02 14:18:07;;;;;;;10.38;1.77;;;;;;;;;;10427513;28;20242;-77
2023/12/02 14:23:12;;;;;;;6.68;1.23;;;;;;;;;;10431312;28;20066;-78
2023/12/02 14:28:39;;;;;;;13.35;1.40;;;;;;;;;;10424574;28;20339;-77
2023/12/02 14:33:39;;;;;;;7.18;0.75;;;;;;;;;;10427134;28;20017;-75
2023/12/02 14:38:39;;;;;;;9.70;1.50;;;;;;;;;;10438922;28;20010;-75
2023/12/02 14:43:51;;;;;;;9.63;1.48;;;;;;;;;;10439469;28;20095;-79
2023/12/02 14:48:51;;;;;;;11.57;1.63;;;;;;;;;;10433014;28;20056;-80
2023/12/02 14:53:56;;;;;;;15.23;1.90;;;;;;;;;;10438146;28;20265;-80
2023/12/02 14:59:00;;;;;;;9.02;2.50;;;;;;;;;;10440859;28;20291;-77
2023/12/02 15:04:00;;;;;;;10.35;1.83;;;;;;;;;;10445767;28;20223;-78
2023/12/02 15:09:02;;;;;;;6.13;2.10;;;;;;;;;;10436710;28;20064;-77
2023/12/02 15:14:04;;;;;;;10.02;1.83;;;;;;;;;;10445959;28;20032;-76
2023/12/02 15:19:09;;;;;;;10.48;2.00;;;;;;;;;;10429740;28;20071;-76
2023/12/02 15:24:09;;;;;;;5.93;2.00;;;;;;;;;;10414644;28;20017;-76
2023/12/02 15:29:09;;;;;;;5.68;2.40;;;;;;;;;;10432339;28;20051;-77
2023/12/02 15:34:09;;;;;;;8.32;3.25;;;;;;;;;;10430828;28;20023;-76
2023/12/02 15:39:10;;;;;;;5.60;2.38;;;;;;;;;;10432318;28;20017;-76
2023/12/02 15:44:11;;;;;;;8.35;3.22;;;;;;;;;;10413244;28;20020;-77
2023/12/02 15:49:13;;;;;;;5.55;2.58;;;;;;;;;;10433568;28;20025;-77
2023/12/02 15:54:15;;;;;;;12.13;3.80;;;;;;;;;;10433227;28;20030;-76
2023/12/02 15:59:18;;;;;;;10.60;3.45;;;;;;;;;;10435208;28;20016;-76
2023/12/02 16:04:18;;;;;;;5.30;2.17;;;;;;;;;;10413626;28;20319;-76
2023/12/02 16:09:19;;;;;;;4.53;2.37;;;;;;;;;;10409318;28;20104;-77
2023/12/02 16:14:20;;;;;;;7.28;3.30;;;;;;;;;;10436142;28;20021;-75
2023/12/02 16:19:21;;;;;;;7.17;2.60;;;;;;;;;;10438101;28;20404;-78
2023/12/02 16:24:22;;;;;;;6.20;2.30;;;;;;;;;;10430929;28;20005;-76
2023/12/02 16:29:22;;;;;;;18.58;2.50;;;;;;;;;;10436820;28;20035;-77
2023/12/02 16:34:22;;;;;;;10.25;3.25;;;;;;;;;;10431993;28;20023;-75
2023/12/02 16:39:23;;;;;;;14.98;3.00;;;;;;;;;;10438872;28;20100;-77
2023/12/02 16:44:23;;;;;;;10.05;3.55;;;;;;;;;;10428605;28;20029;-76
2023/12/02 16:49:23;;;;;;;10.02;2.90;;;;;;;;;;10435847;28;20032;-76
2023/12/02 16:54:30;;;;;;;16.45;3.88;;;;;;;;;;10434654;28;20033;-77
2023/12/02 16:59:48;;;;;;;12.68;2.00;;;;;;;;;;10438110;28;20024;-77
2023/12/02 17:04:49;;;;;;;28.95;16.58;;;;;;;;;;10409153;28;20047;-78
2023/12/02 17:09:49;;;;;;;7.28;2.28;;;;;;;;;;10427123;28;20017;-75
2023/12/02 17:14:49;;;;;;;5.80;2.00;;;;;;;;;;10430383;28;20028;-78
2023/12/02 17:19:50;;;;;;;11.13;2.60;;;;;;;;;;10434049;28;20038;-76
2023/12/02 17:24:51;;;;;;;8.07;2.43;;;;;;;;;;10438467;28;20016;-78
2023/12/02 17:29:51;;;;;;;10.77;2.63;;;;;;;;;;10436788;28;20279;-77
2023/12/02 17:34:51;;;;;;;7.53;2.65;;;;;;;;;;10435393;28;20037;-77
2023/12/02 17:39:52;;;;;;;5.85;2.88;;;;;;;;;;10436480;28;20092;-76
2023/12/02 17:44:52;;;;;;;7.47;2.70;;;;;;;;;;10427999;28;20032;-76
2023/12/02 17:49:52;;;;;;;5.78;2.00;;;;;;;;;;10439513;28;20215;-77
2023/12/02 17:54:52;;;;;;;8.15;2.30;;;;;;;;;;10430591;28;20101;-76
2023/12/02 17:59:52;;;;;;;10.23;3.65;;;;;;;;;;10430071;28;20017;-76
2023/12/02 18:04:53;;;;;;;11.68;2.13;;;;;;;;;;10425935;28;20344;-77
2023/12/02 18:09:53;;;;;;;7.82;2.33;;;;;;;;;;10435414;28;20017;-77
2023/12/02 18:14:53;;;;;;;9.25;2.33;;;;;;;;;;10429423;28;20085;-76
2023/12/02 18:19:53;;;;;;;7.45;2.10;;;;;;;;;;10429737;28;20334;-76
2023/12/02 18:24:53;;;;;;;10.57;3.05;;;;;;;;;;10427739;28;20017;-78
2023/12/02 18:29:54;;;;;;;7.07;2.43;;;;;;;;;;10405034;28;20041;-77
2023/12/02 18:34:54;;;;;;;17.50;4.25;;;;;;;;;;10443779;28;20093;-77
2023/12/02 18:39:54;;;;;;;8.68;2.28;;;;;;;;;;10437010;28;20252;-77
2023/12/02 18:44:55;;;;;;;10.95;3.30;;;;;;;;;;10444559;28;20024;-78
2023/12/02 18:49:55;;;;;;;8.18;2.65;;;;;;;;;;10436961;28;20017;-77
2023/12/02 18:54:55;;;;;;;9.23;2.83;;;;;;;;;;10442654;28;20020;-77
2023/12/02 19:00:05;;;;;;;22.15;3.63;;;;;;;;;;10438533;28;20017;-77
2023/12/02 19:05:05;;;;;;;13.27;2.75;;;;;;;;;;10437978;28;20184;-76
2023/12/02 19:10:06;;;;;;;14.05;3.13;;;;;;;;;;10429255;28;20017;-78
2023/12/02 19:15:13;;;;;;;12.63;3.35;;;;;;;;;;10428871;28;20242;-77
2023/12/02 19:20:13;;;;;;;21.45;5.30;;;;;;;;;;10435860;28;20202;-81
2023/12/02 19:25:14;;;;;;;17.80;4.45;;;;;;;;;;10439233;28;20025;-80
2023/12/02 19:30:14;;;;;;;9.60;2.75;;;;;;;;;;10425790;28;20120;-78
2023/12/02 19:35:15;;;;;;;12.93;3.13;;;;;;;;;;10439558;28;20224;-78
2023/12/02 19:40:15;;;;;;;15.35;4.82;;;;;;;;;;10433327;28;20310;-75
2023/12/02 19:45:16;;;;;;;6.63;2.85;;;;;;;;;;10436337;28;20162;-77
2023/12/02 19:50:19;;;;;;;19.58;3.05;;;;;;;;;;10448803;28;20037;-77
2023/12/02 19:55:19;;;;;;;13.50;3.50;;;;;;;;;;10424030;28;20235;-77
2023/12/02 20:00:20;;;;;;;22.02;6.53;;;;;;;;;;10440716;28;20075;-76
2023/12/02 20:05:22;;;;;;;10.48;4.15;;;;;;;;;;10436794;28;20025;-74
2023/12/02 20:10:24;;;;;;;9.95;2.67;;;;;;;;;;10441222;28;20067;-79
2023/12/02 20:15:25;;;;;;;15.18;4.35;;;;;;;;;;10435799;28;20095;-76
2023/12/02 20:20:25;;;;;;;10.35;2.55;;;;;;;;;;10429055;28;20238;-74
2023/12/02 20:25:25;;;;;;;18.63;3.40;;;;;;;;;;10418356;28;20017;-74
2023/12/02 20:30:26;;;;;;;11.50;1.40;;;;;;;;;;10435472;28;20117;-76
2023/12/02 20:35:26;;;;;;;24.83;2.30;;;;;;;;;;10442358;28;20079;-77
2023/12/02 20:40:27;;;;;;;11.30;2.00;;;;;;;;;;10446072;28;20349;-79
2023/12/02 20:45:27;;;;;;;8.67;2.37;;;;;;;;;;10422212;28;20100;-76
2023/12/02 20:50:27;;;;;;;16.13;2.60;;;;;;;;;;10442892;28;20229;-74
2023/12/02 20:55:27;;;;;;;16.75;2.40;;;;;;;;;;10436559;28;20029;-76
2023/12/02 21:00:27;;;;;;;12.75;1.98;;;;;;;;;;10439535;28;20196;-75
2023/12/02 21:05:28;;;;;;;16.90;1.90;;;;;;;;;;10441802;28;20333;-74
2023/12/02 21:10:28;;;;;;;15.35;2.28;;;;;;;;;;10438628;28;20396;-73
2023/12/02 21:15:28;;;;;;;22.40;2.08;;;;;;;;;;10441966;28;20020;-71
2023/12/02 21:20:29;;;;;;;15.43;1.98;;;;;;;;;;10439898;28;20299;-70
2023/12/02 21:25:29;;;;;;;18.08;2.15;;;;;;;;;;10439991;28;20176;-75
2023/12/02 21:30:33;;;;;;;18.73;2.50;;;;;;;;;;10437943;28;20124;-74
2023/12/02 21:35:34;;;;;;;14.25;2.15;;;;;;;;;;10440548;28;20056;-75
2023/12/02 21:40:36;;;;;;;18.95;1.92;;;;;;;;;;10432228;28;20068;-73
2023/12/02 21:45:45;;;;;;;17.88;2.95;;;;;;;;;;10432342;28;20049;-74
2023/12/02 21:50:46;;;;;;;23.02;2.38;;;;;;;;;;10435263;28;20338;-74
2023/12/02 21:55:46;;;;;;;10.35;1.83;;;;;;;;;;10445705;28;20032;-91
2023/12/02 22:00:47;;;;;;;13.97;2.30;;;;;;;;;;10449137;28;20023;-89
2023/12/02 22:05:48;;;;;;;24.13;3.35;;;;;;;;;;10437327;28;20298;-85
2023/12/02 22:10:48;;;;;;;18.95;2.00;;;;;;;;;;10441844;28;20009;-82
2023/12/02 22:15:50;;;;;;;24.87;2.47;;;;;;;;;;10446426;28;20313;-81
2023/12/02 22:20:50;;;;;;;9.90;2.00;;;;;;;;;;10436730;28;20035;-83
2023/12/02 22:25:51;;;;;;;19.73;2.45;;;;;;;;;;10449471;28;20330;-82
2023/12/02 22:30:52;;;;;;;18.20;1.83;;;;;;;;;;10441030;28;20033;-82
2023/12/02 22:35:52;;;;;;;10.40;1.60;;;;;;;;;;10450039;28;20322;-82
2023/12/02 22:40:52;;;;;;;18.75;2.13;;;;;;;;;;10435496;28;20315;-74
2023/12/02 22:45:52;;;;;;;18.73;2.97;;;;;;;;;;10454807;28;20207;-75
2023/12/02 22:50:53;;;;;;;12.18;2.28;;;;;;;;;;10453630;28;20246;-74
2023/12/02 22:56:02;;;;;;;11.60;1.90;;;;;;;;;;10461741;28;20348;-75
2023/12/02 23:01:03;;;;;;;13.43;1.98;;;;;;;;;;10455825;28;20046;-74
2023/12/02 23:06:03;;;;;;;35.88;7.72;;;;;;;;;;10455355;28;20127;-74
2023/12/02 23:11:04;;;;;;;15.65;3.17;;;;;;;;;;10454094;28;20021;-74
2023/12/02 23:16:04;;;;;;;16.23;3.13;;;;;;;;;;10469401;28;20155;-74
2023/12/02 23:21:05;;;;;;;21.20;3.40;;;;;;;;;;10461750;28;20100;-73
2023/12/02 23:26:05;;;;;;;17.60;3.70;;;;;;;;;;10462665;28;20017;-74
2023/12/02 23:31:06;;;;;;;22.38;3.67;;;;;;;;;;10463553;28;20354;-73
2023/12/02 23:36:06;;;;;;;13.20;2.95;;;;;;;;;;10462631;28;20315;-73
2023/12/02 23:41:10;;;;;;;16.42;3.35;;;;;;;;;;10462021;28;20232;-73
2023/12/02 23:46:10;;;;;;;15.18;3.20;;;;;;;;;;10462268;28;20328;-73
2023/12/02 23:51:10;;;;;;;13.60;2.92;;;;;;;;;;10460500;28;20028;-73
2023/12/02 23:56:12;;;;;;;22.20;3.22;;;;;;;;;;10461033;28;20032;-73
